sensor_id;sensor_type;location;lat;lon;timestamp;P1;durP1;ratioP1;P2;durP2;ratioP2
46653;SDS011;38960;51.074;17.004;2023-02-28T00:02:20;23.70;;;10.40;;
46653;SDS011;38960;51.074;17.004;2023-02-28T00:04:45;19.27;;;10.27;;
46653;SDS011;38960;51.074;17.004;2023-02-28T00:07:18;21.20;;;10.63;;
46653;SDS011;38960;51.074;17.004;2023-02-28T00:09:44;23.83;;;10.27;;
46653;SDS011;38960;51.074;17.004;2023-02-28T00:12:09;20.80;;;9.90;;
46653;SDS011;38960;51.074;17.004;2023-02-28T00:14:38;23.63;;;11.07;;
46653;SDS011;38960;51.074;17.004;2023-02-28T00:17:04;22.93;;;10.00;;
46653;SDS011;38960;51.074;17.004;2023-02-28T00:19:29;21.50;;;10.13;;
46653;SDS011;38960;51.074;17.004;2023-02-28T00:21:55;26.20;;;10.20;;
46653;SDS011;38960;51.074;17.004;2023-02-28T00:24:20;20.50;;;10.70;;
46653;SDS011;38960;51.074;17.004;2023-02-28T00:26:46;21.77;;;10.07;;
46653;SDS011;38960;51.074;17.004;2023-02-28T00:29:11;23.60;;;10.60;;
46653;SDS011;38960;51.074;17.004;2023-02-28T00:31:37;22.63;;;10.60;;
46653;SDS011;38960;51.074;17.004;2023-02-28T00:34:02;16.47;;;8.17;;
46653;SDS011;38960;51.074;17.004;2023-02-28T00:36:29;21.33;;;9.40;;
46653;SDS011;38960;51.074;17.004;2023-02-28T00:38:55;20.37;;;9.07;;
46653;SDS011;38960;51.074;17.004;2023-02-28T00:41:20;20.50;;;8.93;;
46653;SDS011;38960;51.074;17.004;2023-02-28T00:43:46;17.00;;;8.27;;
46653;SDS011;38960;51.074;17.004;2023-02-28T00:46:12;16.57;;;9.10;;
46653;SDS011;38960;51.074;17.004;2023-02-28T00:48:37;16.87;;;9.10;;
46653;SDS011;38960;51.074;17.004;2023-02-28T00:51:03;15.63;;;9.03;;
46653;SDS011;38960;51.074;17.004;2023-02-28T00:53:30;16.10;;;8.70;;
46653;SDS011;38960;51.074;17.004;2023-02-28T00:55:57;22.20;;;10.70;;
46653;SDS011;38960;51.074;17.004;2023-02-28T00:58:24;18.97;;;9.50;;
46653;SDS011;38960;51.074;17.004;2023-02-28T01:00:51;20.27;;;9.73;;
46653;SDS011;38960;51.074;17.004;2023-02-28T01:03:18;21.67;;;10.03;;
46653;SDS011;38960;51.074;17.004;2023-02-28T01:05:44;25.57;;;10.77;;
46653;SDS011;38960;51.074;17.004;2023-02-28T01:08:10;20.77;;;10.07;;
46653;SDS011;38960;51.074;17.004;2023-02-28T01:10:36;17.53;;;8.93;;
46653;SDS011;38960;51.074;17.004;2023-02-28T01:13:03;22.60;;;10.43;;
46653;SDS011;38960;51.074;17.004;2023-02-28T01:15:29;22.47;;;9.70;;
46653;SDS011;38960;51.074;17.004;2023-02-28T01:17:54;20.17;;;9.70;;
46653;SDS011;38960;51.074;17.004;2023-02-28T01:20:21;21.00;;;9.30;;
46653;SDS011;38960;51.074;17.004;2023-02-28T01:22:46;21.20;;;9.93;;
46653;SDS011;38960;51.074;17.004;2023-02-28T01:25:12;23.40;;;9.83;;
46653;SDS011;38960;51.074;17.004;2023-02-28T01:27:37;22.27;;;10.50;;
46653;SDS011;38960;51.074;17.004;2023-02-28T01:30:05;20.47;;;9.23;;
46653;SDS011;38960;51.074;17.004;2023-02-28T01:32:31;22.30;;;9.67;;
46653;SDS011;38960;51.074;17.004;2023-02-28T01:34:57;21.07;;;11.40;;
46653;SDS011;38960;51.074;17.004;2023-02-28T01:37:23;17.03;;;9.63;;
46653;SDS011;38960;51.074;17.004;2023-02-28T01:39:48;25.03;;;10.20;;
46653;SDS011;38960;51.074;17.004;2023-02-28T01:42:14;21.97;;;10.20;;
46653;SDS011;38960;51.074;17.004;2023-02-28T01:47:42;19.00;;;9.88;;
46653;SDS011;38960;51.074;17.004;2023-02-28T01:50:09;26.07;;;10.17;;
46653;SDS011;38960;51.074;17.004;2023-02-28T01:52:43;23.00;;;10.37;;
46653;SDS011;38960;51.074;17.004;2023-02-28T01:55:09;24.50;;;11.47;;
46653;SDS011;38960;51.074;17.004;2023-02-28T01:57:41;23.53;;;10.00;;
46653;SDS011;38960;51.074;17.004;2023-02-28T02:02:38;21.97;;;10.00;;
46653;SDS011;38960;51.074;17.004;2023-02-28T02:05:05;24.13;;;11.67;;
46653;SDS011;38960;51.074;17.004;2023-02-28T02:07:34;25.57;;;11.87;;
46653;SDS011;38960;51.074;17.004;2023-02-28T02:31:41;31.43;;;11.93;;
46653;SDS011;38960;51.074;17.004;2023-02-28T02:41:57;24.63;;;10.77;;
46653;SDS011;38960;51.074;17.004;2023-02-28T02:44:31;21.47;;;10.90;;
46653;SDS011;38960;51.074;17.004;2023-02-28T02:47:14;20.90;;;11.10;;
46653;SDS011;38960;51.074;17.004;2023-02-28T02:49:43;20.00;;;9.90;;
46653;SDS011;38960;51.074;17.004;2023-02-28T02:52:14;24.83;;;10.43;;
46653;SDS011;38960;51.074;17.004;2023-02-28T02:54:41;21.20;;;10.47;;
46653;SDS011;38960;51.074;17.004;2023-02-28T02:57:17;24.23;;;10.93;;
46653;SDS011;38960;51.074;17.004;2023-02-28T02:59:47;23.90;;;11.17;;
46653;SDS011;38960;51.074;17.004;2023-02-28T03:02:15;24.43;;;10.33;;
46653;SDS011;38960;51.074;17.004;2023-02-28T03:04:43;24.07;;;10.53;;
46653;SDS011;38960;51.074;17.004;2023-02-28T03:07:11;24.83;;;10.47;;
46653;SDS011;38960;51.074;17.004;2023-02-28T03:09:38;23.50;;;10.77;;
46653;SDS011;38960;51.074;17.004;2023-02-28T03:12:07;21.17;;;11.40;;
46653;SDS011;38960;51.074;17.004;2023-02-28T03:19:43;22.73;;;10.07;;
46653;SDS011;38960;51.074;17.004;2023-02-28T03:24:58;24.20;;;11.23;;
46653;SDS011;38960;51.074;17.004;2023-02-28T03:27:29;22.33;;;10.87;;
46653;SDS011;38960;51.074;17.004;2023-02-28T03:29:58;24.80;;;10.27;;
46653;SDS011;38960;51.074;17.004;2023-02-28T03:32:38;19.23;;;11.00;;
46653;SDS011;38960;51.074;17.004;2023-02-28T03:35:07;24.63;;;11.37;;
46653;SDS011;38960;51.074;17.004;2023-02-28T03:37:37;24.17;;;11.57;;
46653;SDS011;38960;51.074;17.004;2023-02-28T03:40:06;23.13;;;11.63;;
46653;SDS011;38960;51.074;17.004;2023-02-28T03:42:35;21.70;;;12.00;;
46653;SDS011;38960;51.074;17.004;2023-02-28T03:45:08;23.03;;;11.67;;
46653;SDS011;38960;51.074;17.004;2023-02-28T03:47:46;26.67;;;11.93;;
46653;SDS011;38960;51.074;17.004;2023-02-28T03:50:35;28.20;;;12.93;;
46653;SDS011;38960;51.074;17.004;2023-02-28T03:53:07;23.83;;;11.97;;
46653;SDS011;38960;51.074;17.004;2023-02-28T03:56:02;24.33;;;12.97;;
46653;SDS011;38960;51.074;17.004;2023-02-28T03:58:39;26.33;;;12.53;;
46653;SDS011;38960;51.074;17.004;2023-02-28T04:01:15;26.30;;;14.00;;
46653;SDS011;38960;51.074;17.004;2023-02-28T04:03:44;26.75;;;13.38;;
46653;SDS011;38960;51.074;17.004;2023-02-28T04:06:14;28.73;;;12.97;;
46653;SDS011;38960;51.074;17.004;2023-02-28T04:08:42;25.30;;;12.90;;
46653;SDS011;38960;51.074;17.004;2023-02-28T04:11:14;29.10;;;14.90;;
46653;SDS011;38960;51.074;17.004;2023-02-28T04:13:45;27.00;;;13.67;;
46653;SDS011;38960;51.074;17.004;2023-02-28T04:16:11;32.37;;;14.63;;
46653;SDS011;38960;51.074;17.004;2023-02-28T04:18:37;25.63;;;12.97;;
46653;SDS011;38960;51.074;17.004;2023-02-28T04:21:06;22.83;;;12.90;;
46653;SDS011;38960;51.074;17.004;2023-02-28T04:23:32;27.47;;;12.93;;
46653;SDS011;38960;51.074;17.004;2023-02-28T04:25:58;28.10;;;14.53;;
46653;SDS011;38960;51.074;17.004;2023-02-28T04:28:24;32.73;;;14.43;;
46653;SDS011;38960;51.074;17.004;2023-02-28T04:30:56;28.53;;;14.03;;
46653;SDS011;38960;51.074;17.004;2023-02-28T04:33:23;26.40;;;12.73;;
46653;SDS011;38960;51.074;17.004;2023-02-28T04:35:57;25.17;;;12.03;;
46653;SDS011;38960;51.074;17.004;2023-02-28T04:38:23;27.40;;;11.90;;
46653;SDS011;38960;51.074;17.004;2023-02-28T04:40:49;28.10;;;12.70;;
46653;SDS011;38960;51.074;17.004;2023-02-28T04:43:14;25.67;;;12.50;;
46653;SDS011;38960;51.074;17.004;2023-02-28T04:45:40;25.70;;;12.67;;
46653;SDS011;38960;51.074;17.004;2023-02-28T04:48:05;23.30;;;11.50;;
46653;SDS011;38960;51.074;17.004;2023-02-28T04:50:31;26.47;;;12.67;;
46653;SDS011;38960;51.074;17.004;2023-02-28T04:52:56;24.20;;;12.37;;
46653;SDS011;38960;51.074;17.004;2023-02-28T04:55:22;27.80;;;13.47;;
46653;SDS011;38960;51.074;17.004;2023-02-28T04:57:47;27.67;;;13.57;;
46653;SDS011;38960;51.074;17.004;2023-02-28T05:00:13;27.90;;;13.47;;
46653;SDS011;38960;51.074;17.004;2023-02-28T05:02:41;27.53;;;12.40;;
46653;SDS011;38960;51.074;17.004;2023-02-28T05:05:07;25.50;;;12.80;;
46653;SDS011;38960;51.074;17.004;2023-02-28T05:07:33;26.87;;;12.03;;
46653;SDS011;38960;51.074;17.004;2023-02-28T05:09:59;28.47;;;12.93;;
46653;SDS011;38960;51.074;17.004;2023-02-28T05:12:25;27.40;;;13.03;;
46653;SDS011;38960;51.074;17.004;2023-02-28T05:14:50;22.30;;;11.60;;
46653;SDS011;38960;51.074;17.004;2023-02-28T05:17:16;28.20;;;13.20;;
46653;SDS011;38960;51.074;17.004;2023-02-28T05:19:41;37.77;;;12.70;;
46653;SDS011;38960;51.074;17.004;2023-02-28T05:22:12;26.70;;;12.37;;
46653;SDS011;38960;51.074;17.004;2023-02-28T05:24:39;27.65;;;12.50;;
46653;SDS011;38960;51.074;17.004;2023-02-28T05:27:04;28.00;;;12.57;;
46653;SDS011;38960;51.074;17.004;2023-02-28T05:29:30;29.40;;;12.93;;
46653;SDS011;38960;51.074;17.004;2023-02-28T05:31:55;33.83;;;14.30;;
46653;SDS011;38960;51.074;17.004;2023-02-28T05:34:21;30.33;;;13.60;;
46653;SDS011;38960;51.074;17.004;2023-02-28T05:36:46;25.73;;;12.20;;
46653;SDS011;38960;51.074;17.004;2023-02-28T05:39:12;25.23;;;11.70;;
46653;SDS011;38960;51.074;17.004;2023-02-28T05:41:38;25.83;;;12.50;;
46653;SDS011;38960;51.074;17.004;2023-02-28T05:44:05;21.70;;;11.77;;
46653;SDS011;38960;51.074;17.004;2023-02-28T05:46:30;24.67;;;12.07;;
46653;SDS011;38960;51.074;17.004;2023-02-28T05:48:56;20.17;;;11.47;;
46653;SDS011;38960;51.074;17.004;2023-02-28T05:51:24;27.07;;;12.03;;
46653;SDS011;38960;51.074;17.004;2023-02-28T05:53:50;29.73;;;12.40;;
46653;SDS011;38960;51.074;17.004;2023-02-28T05:56:15;26.57;;;12.40;;
46653;SDS011;38960;51.074;17.004;2023-02-28T05:58:41;36.87;;;12.80;;
46653;SDS011;38960;51.074;17.004;2023-02-28T06:01:22;22.97;;;12.17;;
46653;SDS011;38960;51.074;17.004;2023-02-28T06:04:01;25.40;;;13.53;;
46653;SDS011;38960;51.074;17.004;2023-02-28T06:06:28;30.77;;;13.20;;
46653;SDS011;38960;51.074;17.004;2023-02-28T06:08:54;30.90;;;13.17;;
46653;SDS011;38960;51.074;17.004;2023-02-28T06:11:20;26.47;;;13.03;;
46653;SDS011;38960;51.074;17.004;2023-02-28T06:13:46;23.47;;;12.13;;
46653;SDS011;38960;51.074;17.004;2023-02-28T06:16:11;26.13;;;13.17;;
46653;SDS011;38960;51.074;17.004;2023-02-28T06:18:37;26.07;;;13.70;;
46653;SDS011;38960;51.074;17.004;2023-02-28T06:21:03;24.13;;;13.47;;
46653;SDS011;38960;51.074;17.004;2023-02-28T06:23:29;29.87;;;12.33;;
46653;SDS011;38960;51.074;17.004;2023-02-28T06:28:39;21.80;;;12.87;;
46653;SDS011;38960;51.074;17.004;2023-02-28T06:31:09;24.83;;;13.13;;
46653;SDS011;38960;51.074;17.004;2023-02-28T06:33:35;21.20;;;11.80;;
46653;SDS011;38960;51.074;17.004;2023-02-28T06:36:01;22.63;;;11.97;;
46653;SDS011;38960;51.074;17.004;2023-02-28T06:38:27;23.80;;;12.20;;
46653;SDS011;38960;51.074;17.004;2023-02-28T06:40:53;28.00;;;14.67;;
46653;SDS011;38960;51.074;17.004;2023-02-28T06:43:20;24.13;;;12.20;;
46653;SDS011;38960;51.074;17.004;2023-02-28T06:45:45;25.27;;;13.37;;
46653;SDS011;38960;51.074;17.004;2023-02-28T06:48:11;26.33;;;12.07;;
46653;SDS011;38960;51.074;17.004;2023-02-28T06:50:37;23.73;;;13.17;;
46653;SDS011;38960;51.074;17.004;2023-02-28T06:53:02;22.27;;;12.00;;
46653;SDS011;38960;51.074;17.004;2023-02-28T06:55:28;25.83;;;12.93;;
46653;SDS011;38960;51.074;17.004;2023-02-28T06:57:53;23.27;;;12.17;;
46653;SDS011;38960;51.074;17.004;2023-02-28T07:00:20;19.73;;;11.03;;
46653;SDS011;38960;51.074;17.004;2023-02-28T07:02:46;24.27;;;12.00;;
46653;SDS011;38960;51.074;17.004;2023-02-28T07:05:12;18.50;;;10.47;;
46653;SDS011;38960;51.074;17.004;2023-02-28T07:07:38;19.40;;;10.43;;
46653;SDS011;38960;51.074;17.004;2023-02-28T07:10:09;18.77;;;10.47;;
46653;SDS011;38960;51.074;17.004;2023-02-28T07:12:36;21.50;;;9.47;;
46653;SDS011;38960;51.074;17.004;2023-02-28T07:15:02;18.33;;;9.53;;
46653;SDS011;38960;51.074;17.004;2023-02-28T07:17:29;15.57;;;9.60;;
46653;SDS011;38960;51.074;17.004;2023-02-28T07:19:54;15.57;;;7.50;;
46653;SDS011;38960;51.074;17.004;2023-02-28T07:22:20;14.03;;;7.97;;
46653;SDS011;38960;51.074;17.004;2023-02-28T07:24:45;18.93;;;9.07;;
46653;SDS011;38960;51.074;17.004;2023-02-28T07:27:11;17.47;;;8.57;;
46653;SDS011;38960;51.074;17.004;2023-02-28T07:29:37;13.57;;;7.97;;
46653;SDS011;38960;51.074;17.004;2023-02-28T07:32:03;13.80;;;8.07;;
46653;SDS011;38960;51.074;17.004;2023-02-28T07:34:29;12.13;;;7.03;;
46653;SDS011;38960;51.074;17.004;2023-02-28T07:36:54;13.47;;;7.60;;
46653;SDS011;38960;51.074;17.004;2023-02-28T07:39:20;14.57;;;8.82;;
46653;SDS011;38960;51.074;17.004;2023-02-28T07:41:46;16.53;;;8.30;;
46653;SDS011;38960;51.074;17.004;2023-02-28T07:44:12;18.43;;;8.47;;
46653;SDS011;38960;51.074;17.004;2023-02-28T07:46:38;13.83;;;8.67;;
46653;SDS011;38960;51.074;17.004;2023-02-28T07:49:04;15.20;;;8.40;;
46653;SDS011;38960;51.074;17.004;2023-02-28T07:51:30;16.77;;;9.77;;
46653;SDS011;38960;51.074;17.004;2023-02-28T07:53:56;17.43;;;7.23;;
46653;SDS011;38960;51.074;17.004;2023-02-28T07:56:22;15.95;;;7.00;;
46653;SDS011;38960;51.074;17.004;2023-02-28T07:58:47;9.95;;;6.00;;
46653;SDS011;38960;51.074;17.004;2023-02-28T08:01:13;11.80;;;6.00;;
46653;SDS011;38960;51.074;17.004;2023-02-28T08:03:39;10.10;;;6.50;;
46653;SDS011;38960;51.074;17.004;2023-02-28T08:06:06;10.25;;;6.18;;
46653;SDS011;38960;51.074;17.004;2023-02-28T08:08:33;11.82;;;6.30;;
46653;SDS011;38960;51.074;17.004;2023-02-28T08:11:00;15.15;;;7.55;;
46653;SDS011;38960;51.074;17.004;2023-02-28T08:13:26;15.23;;;8.32;;
46653;SDS011;38960;51.074;17.004;2023-02-28T08:15:53;13.75;;;6.85;;
46653;SDS011;38960;51.074;17.004;2023-02-28T08:18:20;13.45;;;7.18;;
46653;SDS011;38960;51.074;17.004;2023-02-28T08:20:46;8.98;;;5.45;;
46653;SDS011;38960;51.074;17.004;2023-02-28T08:23:11;9.60;;;6.30;;
46653;SDS011;38960;51.074;17.004;2023-02-28T08:25:37;11.43;;;6.82;;
46653;SDS011;38960;51.074;17.004;2023-02-28T08:28:02;12.32;;;6.75;;
46653;SDS011;38960;51.074;17.004;2023-02-28T08:30:28;10.00;;;6.72;;
46653;SDS011;38960;51.074;17.004;2023-02-28T08:32:54;13.63;;;7.43;;
46653;SDS011;38960;51.074;17.004;2023-02-28T08:35:20;12.50;;;6.93;;
46653;SDS011;38960;51.074;17.004;2023-02-28T08:37:49;13.60;;;7.45;;
46653;SDS011;38960;51.074;17.004;2023-02-28T08:40:15;12.57;;;6.78;;
46653;SDS011;38960;51.074;17.004;2023-02-28T08:42:46;10.25;;;6.97;;
46653;SDS011;38960;51.074;17.004;2023-02-28T08:45:13;12.20;;;7.55;;
46653;SDS011;38960;51.074;17.004;2023-02-28T08:47:39;11.90;;;7.70;;
46653;SDS011;38960;51.074;17.004;2023-02-28T08:50:05;12.43;;;7.03;;
46653;SDS011;38960;51.074;17.004;2023-02-28T08:52:31;14.45;;;7.72;;
46653;SDS011;38960;51.074;17.004;2023-02-28T08:54:57;9.50;;;6.03;;
46653;SDS011;38960;51.074;17.004;2023-02-28T08:57:22;8.63;;;6.57;;
46653;SDS011;38960;51.074;17.004;2023-02-28T08:59:48;11.77;;;6.60;;
46653;SDS011;38960;51.074;17.004;2023-02-28T09:02:14;18.85;;;7.32;;
46653;SDS011;38960;51.074;17.004;2023-02-28T09:04:40;12.88;;;7.13;;
46653;SDS011;38960;51.074;17.004;2023-02-28T09:07:06;12.73;;;6.82;;
46653;SDS011;38960;51.074;17.004;2023-02-28T09:09:31;11.02;;;6.13;;
46653;SDS011;38960;51.074;17.004;2023-02-28T09:11:57;10.52;;;5.90;;
46653;SDS011;38960;51.074;17.004;2023-02-28T09:14:23;10.27;;;5.70;;
46653;SDS011;38960;51.074;17.004;2023-02-28T09:16:48;9.73;;;6.65;;
46653;SDS011;38960;51.074;17.004;2023-02-28T09:19:14;6.88;;;4.80;;
46653;SDS011;38960;51.074;17.004;2023-02-28T09:21:40;6.45;;;3.97;;
46653;SDS011;38960;51.074;17.004;2023-02-28T09:24:06;6.30;;;4.10;;
46653;SDS011;38960;51.074;17.004;2023-02-28T09:26:32;6.75;;;4.97;;
46653;SDS011;38960;51.074;17.004;2023-02-28T09:28:57;8.98;;;5.18;;
46653;SDS011;38960;51.074;17.004;2023-02-28T09:31:27;7.43;;;4.75;;
46653;SDS011;38960;51.074;17.004;2023-02-28T09:33:54;10.15;;;4.53;;
46653;SDS011;38960;51.074;17.004;2023-02-28T09:36:21;7.55;;;4.90;;
46653;SDS011;38960;51.074;17.004;2023-02-28T09:38:48;7.30;;;4.22;;
46653;SDS011;38960;51.074;17.004;2023-02-28T09:41:15;7.28;;;4.10;;
46653;SDS011;38960;51.074;17.004;2023-02-28T09:43:44;10.35;;;4.55;;
46653;SDS011;38960;51.074;17.004;2023-02-28T09:46:24;6.80;;;4.15;;
46653;SDS011;38960;51.074;17.004;2023-02-28T09:48:50;7.68;;;4.63;;
46653;SDS011;38960;51.074;17.004;2023-02-28T09:54:23;8.30;;;4.72;;
46653;SDS011;38960;51.074;17.004;2023-02-28T09:56:53;6.43;;;4.45;;
46653;SDS011;38960;51.074;17.004;2023-02-28T09:59:28;9.40;;;4.57;;
46653;SDS011;38960;51.074;17.004;2023-02-28T10:02:38;8.00;;;4.75;;
46653;SDS011;38960;51.074;17.004;2023-02-28T10:05:07;5.90;;;4.43;;
46653;SDS011;38960;51.074;17.004;2023-02-28T10:10:55;6.22;;;4.55;;
46653;SDS011;38960;51.074;17.004;2023-02-28T10:15:40;13.52;;;5.20;;
46653;SDS011;38960;51.074;17.004;2023-02-28T10:18:10;7.00;;;4.70;;
46653;SDS011;38960;51.074;17.004;2023-02-28T10:20:37;10.20;;;5.15;;
46653;SDS011;38960;51.074;17.004;2023-02-28T10:25:44;7.95;;;5.13;;
46653;SDS011;38960;51.074;17.004;2023-02-28T10:28:14;6.50;;;4.35;;
46653;SDS011;38960;51.074;17.004;2023-02-28T10:30:42;6.97;;;5.10;;
46653;SDS011;38960;51.074;17.004;2023-02-28T10:33:23;9.40;;;5.68;;
46653;SDS011;38960;51.074;17.004;2023-02-28T10:35:51;7.78;;;5.80;;
46653;SDS011;38960;51.074;17.004;2023-02-28T10:38:19;11.73;;;5.95;;
46653;SDS011;38960;51.074;17.004;2023-02-28T10:40:49;13.27;;;5.40;;
46653;SDS011;38960;51.074;17.004;2023-02-28T10:45:51;11.80;;;5.22;;
46653;SDS011;38960;51.074;17.004;2023-02-28T10:56:12;11.07;;;6.28;;
46653;SDS011;38960;51.074;17.004;2023-02-28T10:59:22;11.27;;;5.93;;
46653;SDS011;38960;51.074;17.004;2023-02-28T11:01:52;7.78;;;6.05;;
46653;SDS011;38960;51.074;17.004;2023-02-28T11:04:19;12.55;;;6.38;;
46653;SDS011;38960;51.074;17.004;2023-02-28T11:06:46;9.70;;;5.63;;
46653;SDS011;38960;51.074;17.004;2023-02-28T11:09:18;12.77;;;6.72;;
46653;SDS011;38960;51.074;17.004;2023-02-28T11:11:48;10.57;;;6.18;;
46653;SDS011;38960;51.074;17.004;2023-02-28T11:14:19;9.32;;;5.13;;
46653;SDS011;38960;51.074;17.004;2023-02-28T11:16:55;10.32;;;6.55;;
46653;SDS011;38960;51.074;17.004;2023-02-28T11:21:55;11.18;;;7.20;;
46653;SDS011;38960;51.074;17.004;2023-02-28T11:26:55;10.70;;;6.55;;
46653;SDS011;38960;51.074;17.004;2023-02-28T11:34:46;14.95;;;7.57;;
46653;SDS011;38960;51.074;17.004;2023-02-28T11:37:25;10.55;;;6.82;;
46653;SDS011;38960;51.074;17.004;2023-02-28T11:39:52;15.70;;;7.47;;
46653;SDS011;38960;51.074;17.004;2023-02-28T11:45:02;13.57;;;8.05;;
46653;SDS011;38960;51.074;17.004;2023-02-28T11:47:48;15.93;;;6.85;;
46653;SDS011;38960;51.074;17.004;2023-02-28T11:50:26;10.77;;;7.30;;
46653;SDS011;38960;51.074;17.004;2023-02-28T11:53:02;18.85;;;7.65;;
46653;SDS011;38960;51.074;17.004;2023-02-28T11:59:42;10.20;;;6.70;;
46653;SDS011;38960;51.074;17.004;2023-02-28T12:26:43;11.65;;;6.38;;
46653;SDS011;38960;51.074;17.004;2023-02-28T12:29:15;14.43;;;7.30;;
46653;SDS011;38960;51.074;17.004;2023-02-28T12:34:18;13.05;;;7.75;;
46653;SDS011;38960;51.074;17.004;2023-02-28T12:36:46;10.60;;;6.97;;
46653;SDS011;38960;51.074;17.004;2023-02-28T12:39:14;11.30;;;6.93;;
46653;SDS011;38960;51.074;17.004;2023-02-28T12:41:47;14.40;;;7.82;;
46653;SDS011;38960;51.074;17.004;2023-02-28T12:47:02;11.80;;;7.63;;
46653;SDS011;38960;51.074;17.004;2023-02-28T12:49:32;11.88;;;7.40;;
46653;SDS011;38960;51.074;17.004;2023-02-28T12:52:21;11.88;;;6.75;;
46653;SDS011;38960;51.074;17.004;2023-02-28T13:06:49;20.40;;;8.25;;
46653;SDS011;38960;51.074;17.004;2023-02-28T13:09:10;21.60;;;8.30;;
46653;SDS011;38960;51.074;17.004;2023-02-28T13:22:44;16.75;;;8.77;;
46653;SDS011;38960;51.074;17.004;2023-02-28T13:27:47;15.50;;;8.88;;
46653;SDS011;38960;51.074;17.004;2023-02-28T13:36:01;14.95;;;8.18;;
46653;SDS011;38960;51.074;17.004;2023-02-28T13:38:47;19.65;;;8.45;;
46653;SDS011;38960;51.074;17.004;2023-02-28T13:54:39;18.48;;;8.43;;
46653;SDS011;38960;51.074;17.004;2023-02-28T13:57:44;16.02;;;8.25;;
46653;SDS011;38960;51.074;17.004;2023-02-28T14:06:32;16.98;;;8.50;;
46653;SDS011;38960;51.074;17.004;2023-02-28T14:11:38;16.73;;;9.43;;
46653;SDS011;38960;51.074;17.004;2023-02-28T14:14:06;16.88;;;8.70;;
46653;SDS011;38960;51.074;17.004;2023-02-28T14:16:39;14.35;;;8.13;;
46653;SDS011;38960;51.074;17.004;2023-02-28T14:21:56;17.50;;;9.10;;
46653;SDS011;38960;51.074;17.004;2023-02-28T14:31:13;14.23;;;8.35;;
46653;SDS011;38960;51.074;17.004;2023-02-28T14:33:50;14.13;;;7.97;;
46653;SDS011;38960;51.074;17.004;2023-02-28T14:36:37;13.75;;;8.20;;
46653;SDS011;38960;51.074;17.004;2023-02-28T14:39:14;15.57;;;8.20;;
46653;SDS011;38960;51.074;17.004;2023-02-28T14:41:43;13.55;;;8.38;;
46653;SDS011;38960;51.074;17.004;2023-02-28T14:44:14;16.23;;;7.93;;
46653;SDS011;38960;51.074;17.004;2023-02-28T14:46:40;14.38;;;9.00;;
46653;SDS011;38960;51.074;17.004;2023-02-28T14:49:12;18.77;;;8.75;;
46653;SDS011;38960;51.074;17.004;2023-02-28T14:51:41;17.48;;;9.20;;
46653;SDS011;38960;51.074;17.004;2023-02-28T14:54:12;14.15;;;8.38;;
46653;SDS011;38960;51.074;17.004;2023-02-28T14:56:39;16.58;;;9.32;;
46653;SDS011;38960;51.074;17.004;2023-02-28T14:59:05;20.48;;;9.93;;
46653;SDS011;38960;51.074;17.004;2023-02-28T15:01:48;16.98;;;11.18;;
46653;SDS011;38960;51.074;17.004;2023-02-28T15:04:18;17.92;;;9.85;;
46653;SDS011;38960;51.074;17.004;2023-02-28T15:07:06;16.60;;;10.20;;
46653;SDS011;38960;51.074;17.004;2023-02-28T15:09:32;18.08;;;9.60;;
46653;SDS011;38960;51.074;17.004;2023-02-28T15:11:58;18.08;;;9.10;;
46653;SDS011;38960;51.074;17.004;2023-02-28T15:14:24;17.83;;;9.65;;
46653;SDS011;38960;51.074;17.004;2023-02-28T15:16:56;18.70;;;9.65;;
46653;SDS011;38960;51.074;17.004;2023-02-28T15:19:24;22.00;;;10.50;;
46653;SDS011;38960;51.074;17.004;2023-02-28T15:21:54;20.10;;;9.57;;
46653;SDS011;38960;51.074;17.004;2023-02-28T15:24:30;22.17;;;10.48;;
46653;SDS011;38960;51.074;17.004;2023-02-28T15:27:09;22.42;;;10.57;;
46653;SDS011;38960;51.074;17.004;2023-02-28T15:30:07;16.40;;;9.20;;
46653;SDS011;38960;51.074;17.004;2023-02-28T15:32:38;17.98;;;9.40;;
46653;SDS011;38960;51.074;17.004;2023-02-28T15:40:23;18.27;;;9.68;;
46653;SDS011;38960;51.074;17.004;2023-02-28T15:43:13;21.08;;;9.82;;
46653;SDS011;38960;51.074;17.004;2023-02-28T15:45:41;20.42;;;8.88;;
46653;SDS011;38960;51.074;17.004;2023-02-28T15:48:20;17.67;;;9.18;;
46653;SDS011;38960;51.074;17.004;2023-02-28T15:50:49;16.50;;;9.20;;
46653;SDS011;38960;51.074;17.004;2023-02-28T15:53:40;13.53;;;8.30;;
46653;SDS011;38960;51.074;17.004;2023-02-28T15:58:50;17.83;;;9.52;;
46653;SDS011;38960;51.074;17.004;2023-02-28T16:01:21;16.30;;;8.98;;
46653;SDS011;38960;51.074;17.004;2023-02-28T16:03:50;21.75;;;9.48;;
46653;SDS011;38960;51.074;17.004;2023-02-28T16:09:03;18.08;;;9.52;;
46653;SDS011;38960;51.074;17.004;2023-02-28T16:11:33;15.98;;;8.18;;
46653;SDS011;38960;51.074;17.004;2023-02-28T16:13:59;15.07;;;8.25;;
46653;SDS011;38960;51.074;17.004;2023-02-28T16:16:25;18.48;;;9.23;;
46653;SDS011;38960;51.074;17.004;2023-02-28T16:18:51;18.85;;;8.63;;
46653;SDS011;38960;51.074;17.004;2023-02-28T16:21:17;15.93;;;7.90;;
46653;SDS011;38960;51.074;17.004;2023-02-28T16:23:43;19.67;;;8.90;;
46653;SDS011;38960;51.074;17.004;2023-02-28T16:26:09;17.45;;;8.30;;
46653;SDS011;38960;51.074;17.004;2023-02-28T16:28:41;13.20;;;8.18;;
46653;SDS011;38960;51.074;17.004;2023-02-28T16:31:06;15.15;;;8.20;;
46653;SDS011;38960;51.074;17.004;2023-02-28T16:33:32;16.73;;;9.13;;
46653;SDS011;38960;51.074;17.004;2023-02-28T16:35:58;14.75;;;7.90;;
46653;SDS011;38960;51.074;17.004;2023-02-28T16:38:24;14.90;;;7.80;;
46653;SDS011;38960;51.074;17.004;2023-02-28T16:40:50;18.27;;;8.87;;
46653;SDS011;38960;51.074;17.004;2023-02-28T16:43:25;13.57;;;7.78;;
46653;SDS011;38960;51.074;17.004;2023-02-28T16:45:55;14.80;;;8.00;;
46653;SDS011;38960;51.074;17.004;2023-02-28T16:48:21;19.75;;;7.93;;
46653;SDS011;38960;51.074;17.004;2023-02-28T16:50:47;14.00;;;7.88;;
46653;SDS011;38960;51.074;17.004;2023-02-28T16:53:13;17.63;;;8.57;;
46653;SDS011;38960;51.074;17.004;2023-02-28T16:55:38;20.42;;;8.45;;
46653;SDS011;38960;51.074;17.004;2023-02-28T16:58:04;11.90;;;7.90;;
46653;SDS011;38960;51.074;17.004;2023-02-28T17:00:31;18.15;;;8.00;;
46653;SDS011;38960;51.074;17.004;2023-02-28T17:02:57;14.43;;;8.82;;
46653;SDS011;38960;51.074;17.004;2023-02-28T17:05:24;23.43;;;10.07;;
46653;SDS011;38960;51.074;17.004;2023-02-28T17:07:51;15.43;;;9.47;;
46653;SDS011;38960;51.074;17.004;2023-02-28T17:10:24;20.47;;;10.13;;
46653;SDS011;38960;51.074;17.004;2023-02-28T17:12:51;20.27;;;10.30;;
46653;SDS011;38960;51.074;17.004;2023-02-28T17:15:17;20.93;;;11.33;;
46653;SDS011;38960;51.074;17.004;2023-02-28T17:17:45;22.17;;;11.80;;
46653;SDS011;38960;51.074;17.004;2023-02-28T17:20:18;21.07;;;11.90;;
46653;SDS011;38960;51.074;17.004;2023-02-28T17:22:48;22.23;;;11.40;;
46653;SDS011;38960;51.074;17.004;2023-02-28T17:25:14;18.87;;;12.03;;
46653;SDS011;38960;51.074;17.004;2023-02-28T17:27:40;20.80;;;11.60;;
46653;SDS011;38960;51.074;17.004;2023-02-28T17:30:13;23.87;;;11.80;;
46653;SDS011;38960;51.074;17.004;2023-02-28T17:32:49;23.67;;;12.20;;
46653;SDS011;38960;51.074;17.004;2023-02-28T17:35:15;22.40;;;13.00;;